This is the latest recevied weather packets stored in our database for station/object N3HBJ. If no packets are shown the sender has not sent any weather packets the latest 10 day(s).
| Time | Temp. | Humidity | Pressure | Rain* | Wind** | Luminosity | Snow |
|---|---|---|---|---|---|---|---|
| 1777615496 | 0° C | 93% | 1014.1 hPa | 0 mm | - | 0 W/m² | - |
| 1777613392 | 0° C | 93% | 1014.2 hPa | 0 mm | - | 0 W/m² | - |
| 1777612490 | 0.56° C | 92% | 1014.2 hPa | 0 mm | - | 0 W/m² | - |
| 1777610090 | 0.56° C | 92% | 1014.2 hPa | 0 mm | - | 0 W/m² | - |
| 1777609027 | 1.11° C | 92% | 1014.2 hPa | 0 mm | - | 0 W/m² | - |
| 1777606482 | 1.67° C | 91% | 1014.1 hPa | 0 mm | - | 0 W/m² | - |
| 1777604643 | 1.67° C | 90% | 1014.1 hPa | 0 mm | - | 0 W/m² | - |
| 1777603719 | 2.22° C | 90% | 1014.1 hPa | 0 mm | - | 0 W/m² | - |
| 1777602955 | 2.78° C | 90% | 1014.2 hPa | 0 mm | - | 0 W/m² | - |
| 1777602217 | 2.78° C | 90% | 1014.2 hPa | 0 mm | - | 0 W/m² | - |
| 1777598310 | 4.44° C | 87% | 1013.8 hPa | 0 mm | - | 0 W/m² | - |
| 1777593488 | 5.56° C | 84% | 1013.4 hPa | 0.25 mm | - | 0 W/m² | - |
| 1777592284 | 6.11° C | 82% | 1013.1 hPa | 0 mm | - | 5 W/m² | - |
| 1777591984 | 6.67° C | 84% | 1013.3 hPa | 0 mm | - | 11 W/m² | - |
| 1777591685 | 6.67° C | 85% | 1013.1 hPa | 0 mm | - | 11 W/m² | - |
| 1777590780 | 6.67° C | 85% | 1012.8 hPa | 0.25 mm | - | 25 W/m² | - |
| 1777588220 | 6.67° C | 85% | 1012.7 hPa | 0.51 mm | - | 30 W/m² | - |
| 1777587772 | 6.67° C | 85% | 1012.7 hPa | 0.51 mm | - | 28 W/m² | - |
| 1777586717 | 7.22° C | 81% | 1012.4 hPa | 0.25 mm | - | 51 W/m² | - |
| 1777585068 | 8.89° C | 75% | 1011.8 hPa | 0 mm | - | 258 W/m² | - |
| 1777584167 | 8.33° C | 79% | 1011.7 hPa | 0 mm | - | 367 W/m² | - |
| 1777579023 | 7.78° C | 79% | 1011.2 hPa | 0 mm | - | 95 W/m² | - |
| 1777577366 | 8.33° C | 80% | 1011 hPa | 0 mm | - | 111 W/m² | - |
| 1777576167 | 8.33° C | 83% | 1010.8 hPa | 0 mm | - | 237 W/m² | - |
| 1777575421 | 8.33° C | 84% | 1010.7 hPa | 0 mm | - | 304 W/m² | - |
* Rain latest hour (hover to see other rain measurements)
** Current wind speed in m/s (hover to see current wind gust speed)